Samus Swan — 9HA2333 — position and weather

sailwx.info

Track history (hours):
 
Tides and Currents Weather Stations Pressure Air Temp Water Temp Dewpoint Dewpoint Depression Visibility Wind Speed Wind Dir Waves Ship Positions

Samus Swan

Last reported at 2015-Mar-05 23:32 UTC. Time now 2015-Mar-06 07:30 UTC.
Position N 29°43' W 095°15'.

Length 106 m; draft 6.6 m.

Type: Ship (hazmat cat B). MMSI: 248363000.

Date/timePositionNaut miles runAvg speedWind from/ knotsBaromVisibWave heightAir tempDewpointWater temp
2015-Mar-05 23:32N 29°43' W 095°15'4 3.0
2015-Mar-05 22:05N 29°45' W 095°10'3 5.7
2015-Mar-05 21:29N 29°45' W 095°06'6 6.4
2015-Mar-05 20:33N 29°42' W 095°00'10 9.8
2015-Mar-05 19:33N 29°33' W 094°55'9 8.5
2015-Mar-05 18:32N 29°26' W 094°50'  
2015-Feb-28 04:33N 25°52' W 079°28'8 8.3
2015-Feb-28 03:33N 26°01' W 079°26'2 1.2
2015-Feb-28 01:33N 25°60' W 079°24'1 1.1
2015-Feb-28 00:28N 25°59' W 079°22'1 0.7
2015-Feb-27 22:32N 25°60' W 079°21'  
Track history (hours):
 
Tides and Currents Weather Stations Pressure Air Temp Water Temp Dewpoint Dewpoint Depression Visibility Wind Speed Wind Dir Waves Ship Positions

Samus Swan

Last reported at 2015-Mar-05 23:32 UTC. Time now 2015-Mar-06 07:30 UTC.
Position N 29°43' W 095°15'.

Length 106 m; draft 6.6 m.

Type: Ship (hazmat cat B). MMSI: 248363000.

Date/timePositionNaut miles runAvg speedWind from/ knotsBaromVisibWave heightAir tempDewpointWater temp
2015-Mar-05 23:32N 29°43' W 095°15'4 3.0
2015-Mar-05 22:05N 29°45' W 095°10'3 5.7
2015-Mar-05 21:29N 29°45' W 095°06'6 6.4
2015-Mar-05 20:33N 29°42' W 095°00'10 9.8
2015-Mar-05 19:33N 29°33' W 094°55'9 8.5
2015-Mar-05 18:32N 29°26' W 094°50'  
2015-Feb-28 04:33N 25°52' W 079°28'8 8.3
2015-Feb-28 03:33N 26°01' W 079°26'2 1.2
2015-Feb-28 01:33N 25°60' W 079°24'1 1.1
2015-Feb-28 00:28N 25°59' W 079°22'1 0.7
2015-Feb-27 22:32N 25°60' W 079°21'  

Dump ship's entire track history